Time;durP1;ratioP1;P1;durP2;ratioP2;P2;SDS_P1;SDS_P2;PMS_P1;PMS_P2;Temp;Humidity;BMP_temperature;BMP_pressure;BME280_temperature;BME280_humidity;BME280_pressure;Samples;Min_cycle;Max_cycle;Signal;HPM_P1;HPM_P2
2022/07/08 00:01:08;;;;;;;17.52;3.70;;;;;;;13.44;89.04;101645.44;7395766;19;20018;-69
2022/07/08 00:03:36;;;;;;;21.20;4.20;;;;;;;13.43;89.06;101651.63;7396849;19;20031;-70
2022/07/08 00:06:05;;;;;;;21.50;4.32;;;;;;;13.41;89.05;101653.44;7396925;19;20018;-70
2022/07/08 00:08:34;;;;;;;15.50;3.47;;;;;;;13.39;88.78;101657.00;7396816;19;20014;-70
2022/07/08 00:11:06;;;;;;;17.40;3.75;;;;;;;13.37;89.36;101649.13;7395111;19;20025;-70
2022/07/08 00:13:34;;;;;;;20.63;4.40;;;;;;;13.35;88.93;101649.09;7395360;19;20073;-70
2022/07/08 00:16:02;;;;;;;22.50;4.35;;;;;;;13.34;89.55;101651.78;7395221;19;20014;-70
2022/07/08 00:18:31;;;;;;;21.42;4.55;;;;;;;13.32;89.93;101650.91;7394665;19;20074;-70
2022/07/08 00:20:59;;;;;;;26.13;6.18;;;;;;;13.29;89.49;101645.72;7394474;19;20018;-70
2022/07/08 00:23:28;;;;;;;18.13;4.20;;;;;;;13.29;89.41;101646.56;7394287;19;20551;-70
2022/07/08 00:25:56;;;;;;;21.60;4.80;;;;;;;13.27;87.70;101652.78;7394518;19;20023;-70
2022/07/08 00:28:28;;;;;;;17.83;4.05;;;;;;;13.27;88.77;101653.66;7396286;19;20086;-71
2022/07/08 00:30:56;;;;;;;12.95;3.63;;;;;;;13.27;87.15;101652.78;7394609;19;20010;-70
2022/07/08 00:33:25;;;;;;;19.83;4.60;;;;;;;13.29;88.44;101666.81;7396080;19;20361;-70
2022/07/08 00:35:53;;;;;;;21.13;4.43;;;;;;;13.28;88.57;101649.25;7393899;19;20380;-70
2022/07/08 00:38:22;;;;;;;21.08;4.40;;;;;;;13.30;89.38;101652.72;7394881;19;20548;-70
2022/07/08 00:40:50;;;;;;;20.00;4.53;;;;;;;13.30;89.25;101652.72;7394037;19;20498;-70
2022/07/08 00:43:37;;;;;;;19.15;4.70;;;;;;;13.31;88.05;101659.75;7395314;19;20501;-70
2022/07/08 00:46:07;;;;;;;18.10;4.07;;;;;;;13.29;87.15;101664.16;7395824;19;20019;-70
2022/07/08 00:48:36;;;;;;;18.67;4.13;;;;;;;13.30;88.99;101658.00;7395350;19;20022;-70
2022/07/08 00:51:07;;;;;;;20.42;4.03;;;;;;;13.29;87.75;101643.94;7393422;19;20018;-70
2022/07/08 00:53:38;;;;;;;18.33;4.55;;;;;;;13.31;87.99;101662.38;7393430;19;20010;-70
2022/07/08 00:56:13;;;;;;;15.35;4.28;;;;;;;13.32;87.91;101672.00;7395900;19;20032;-70
2022/07/08 00:58:45;;;;;;;19.45;5.50;;;;;;;13.32;88.44;101667.63;7393497;19;20101;-69
2022/07/08 01:01:13;;;;;;;24.42;4.45;;;;;;;13.35;88.19;101678.09;7393657;19;20074;-70
2022/07/08 01:03:42;;;;;;;17.48;5.03;;;;;;;13.37;88.94;101675.47;7395126;19;20037;-70
2022/07/08 01:06:11;;;;;;;15.70;3.97;;;;;;;13.39;87.41;101672.81;7394728;19;20082;-67
2022/07/08 01:08:40;;;;;;;17.27;4.35;;;;;;;13.41;88.76;101679.78;7394675;19;20023;-68
2022/07/08 01:11:09;;;;;;;17.52;3.75;;;;;;;13.42;87.48;101673.63;7392717;19;20485;-68
2022/07/08 01:13:38;;;;;;;22.58;4.95;;;;;;;13.44;87.84;101687.63;7395726;19;20015;-67
2022/07/08 01:16:10;;;;;;;20.15;4.95;;;;;;;13.43;87.84;101680.63;7392661;19;20007;-67
2022/07/08 01:18:38;;;;;;;18.27;4.68;;;;;;;13.46;88.17;101679.72;7393287;19;20023;-67
2022/07/08 01:21:10;;;;;;;22.88;5.18;;;;;;;13.43;87.85;101679.75;7393144;19;20027;-67
2022/07/08 01:23:39;;;;;;;17.38;4.07;;;;;;;13.45;88.47;101686.75;7393001;19;20023;-66
2022/07/08 01:26:12;;;;;;;22.58;4.38;;;;;;;13.46;88.07;101685.00;7394638;19;20039;-67
2022/07/08 01:28:41;;;;;;;17.03;4.10;;;;;;;13.48;88.60;101689.34;7394941;19;20083;-67
2022/07/08 01:31:10;;;;;;;23.40;4.28;;;;;;;13.51;87.97;101699.81;7392402;19;20070;-68
2022/07/08 01:33:39;;;;;;;17.17;3.67;;;;;;;13.52;87.12;101700.66;7393980;19;20383;-67
2022/07/08 01:36:11;;;;;;;18.42;4.65;;;;;;;13.53;87.67;101694.50;7392461;19;20039;-67
2022/07/08 01:38:40;;;;;;;23.58;5.40;;;;;;;13.56;88.19;101699.72;7392611;19;20015;-67
2022/07/08 01:41:08;;;;;;;23.20;4.28;;;;;;;13.59;88.19;101702.28;7391990;19;20498;-67
2022/07/08 01:43:36;;;;;;;11.52;3.90;;;;;;;13.61;87.88;101699.63;7391791;19;20480;-67
2022/07/08 01:46:05;;;;;;;22.13;4.28;;;;;;;13.62;88.31;101704.88;7391768;19;20485;-67
2022/07/08 01:48:34;;;;;;;16.05;3.83;;;;;;;13.64;87.90;101704.84;7395238;19;20019;-67
2022/07/08 01:51:02;;;;;;;19.98;4.35;;;;;;;13.64;87.94;101704.84;7392448;19;20032;-66
2022/07/08 01:53:33;;;;;;;21.75;4.65;;;;;;;13.64;88.03;101705.72;7393431;19;20498;-66
2022/07/08 01:56:02;;;;;;;21.35;5.47;;;;;;;13.65;87.96;101710.09;7392105;19;20039;-67
2022/07/08 01:58:30;;;;;;;17.85;3.78;;;;;;;13.66;87.45;101703.03;7391127;19;20035;-66
2022/07/08 02:00:59;;;;;;;20.75;4.22;;;;;;;13.67;87.78;101708.31;7391727;19;20036;-66
2022/07/08 02:03:27;;;;;;;23.75;4.38;;;;;;;13.71;88.16;101706.47;7395912;19;20035;-66
2022/07/08 02:05:56;;;;;;;21.38;4.32;;;;;;;13.73;87.77;101704.66;7400890;19;20404;-66
2022/07/08 02:08:24;;;;;;;19.73;4.32;;;;;;;13.73;87.50;101704.66;7398032;19;20019;-66
2022/07/08 02:13:36;;;;;;;19.07;4.20;;;;;;;13.78;88.02;101709.84;7401244;19;20361;-67
2022/07/08 02:16:05;;;;;;;21.63;4.10;;;;;;;13.81;88.20;101709.78;7397801;19;20429;-66
2022/07/08 02:18:34;;;;;;;15.05;4.32;;;;;;;13.81;87.83;101710.66;7399790;19;20368;-66
2022/07/08 02:21:03;;;;;;;17.30;4.25;;;;;;;13.81;86.97;101712.41;7398464;19;20018;-67
2022/07/08 02:23:31;;;;;;;21.30;4.68;;;;;;;13.81;87.78;101720.34;7397672;19;20086;-66
2022/07/08 02:26:02;;;;;;;20.58;5.47;;;;;;;13.83;87.64;101721.19;7397451;19;20082;-66
2022/07/08 02:28:31;;;;;;;22.67;5.28;;;;;;;13.83;87.43;101716.75;7399939;19;20509;-66
2022/07/08 02:30:59;;;;;;;25.20;4.90;;;;;;;13.84;87.54;101715.88;7397656;19;20026;-67
2022/07/08 02:33:28;;;;;;;21.52;4.47;;;;;;;13.85;87.74;101714.97;7399483;19;20015;-67
2022/07/08 02:35:56;;;;;;;18.65;4.22;;;;;;;13.86;87.72;101721.09;7399337;19;20018;-68
2022/07/08 02:38:25;;;;;;;21.05;4.45;;;;;;;13.86;87.80;101723.75;7396450;19;20494;-68
2022/07/08 02:41:00;;;;;;;20.40;4.75;;;;;;;13.86;87.68;101721.09;7399670;19;20034;-68
2022/07/08 02:43:31;;;;;;;24.50;4.55;;;;;;;13.87;87.81;101732.56;7397981;19;20031;-68
2022/07/08 02:46:00;;;;;;;16.55;3.92;;;;;;;13.88;87.81;101742.22;7401107;19;20098;-69
2022/07/08 02:48:28;;;;;;;23.08;6.05;;;;;;;13.85;87.00;101743.13;7400186;19;20473;-68
2022/07/08 02:50:57;;;;;;;20.10;4.82;;;;;;;13.87;87.13;101740.47;7396949;19;20415;-68
2022/07/08 02:53:25;;;;;;;18.30;4.05;;;;;;;13.87;87.65;101743.97;7399227;19;20086;-68
2022/07/08 02:55:54;;;;;;;16.50;4.25;;;;;;;13.87;86.93;101743.09;7396563;19;20342;-68
2022/07/08 02:58:22;;;;;;;21.13;4.65;;;;;;;13.87;87.36;101748.38;7396529;19;20031;-68
2022/07/08 03:00:54;;;;;;;16.00;3.78;;;;;;;13.88;87.80;101750.97;7396082;19;20541;-68
2022/07/08 03:03:22;;;;;;;25.67;5.38;;;;;;;13.87;87.62;101751.00;7396686;19;20444;-68
2022/07/08 03:05:51;;;;;;;20.27;4.57;;;;;;;13.88;87.68;101756.25;7398797;19;20078;-68
2022/07/08 03:08:19;;;;;;;16.83;4.72;;;;;;;13.89;87.80;101760.63;7396257;19;20031;-68
2022/07/08 03:10:49;;;;;;;18.50;4.22;;;;;;;13.89;87.86;101758.00;7396647;19;20481;-68
2022/07/08 03:13:17;;;;;;;22.23;4.35;;;;;;;13.90;87.73;101758.84;7398312;19;20037;-68
2022/07/08 03:15:46;;;;;;;19.67;3.92;;;;;;;13.90;87.88;101758.84;7394237;19;20018;-69
2022/07/08 03:18:17;;;;;;;20.40;4.90;;;;;;;13.91;88.08;101761.44;7396409;19;20022;-68
2022/07/08 03:20:45;;;;;;;17.52;4.28;;;;;;;13.92;87.73;101765.84;7396287;19;20086;-68
2022/07/08 03:23:14;;;;;;;24.25;5.63;;;;;;;13.92;87.83;101768.47;7396276;19;20077;-68
2022/07/08 03:25:42;;;;;;;16.70;3.88;;;;;;;13.80;87.91;101751.13;7396030;19;20032;-68
2022/07/08 03:28:11;;;;;;;14.93;4.18;;;;;;;13.93;87.69;101778.13;7395595;19;20478;-68
2022/07/08 03:30:40;;;;;;;19.00;4.60;;;;;;;13.93;87.89;101780.78;7396222;19;20015;-68
2022/07/08 03:33:08;;;;;;;24.80;6.43;;;;;;;13.95;87.91;101780.72;7395731;19;20019;-68
2022/07/08 03:35:39;;;;;;;19.23;4.07;;;;;;;13.95;87.88;101784.25;7397530;19;20082;-68
2022/07/08 03:38:08;;;;;;;20.30;4.35;;;;;;;13.97;87.79;101789.50;7395886;19;20015;-68
2022/07/08 03:43:18;;;;;;;22.75;5.05;;;;;;;13.97;87.75;101787.72;7397361;19;20023;-68
2022/07/08 03:45:46;;;;;;;14.52;5.63;;;;;;;13.97;87.60;101793.00;7397086;19;20351;-68
2022/07/08 03:48:15;;;;;;;20.13;4.68;;;;;;;13.99;87.69;101795.63;7395005;19;20388;-68
2022/07/08 03:50:46;;;;;;;13.60;4.20;;;;;;;14.00;87.50;101802.63;7394990;19;20022;-69
2022/07/08 03:53:14;;;;;;;17.88;3.97;;;;;;;14.00;87.12;101810.53;7394740;19;20375;-69
2022/07/08 03:55:43;;;;;;;15.20;4.10;;;;;;;14.02;87.19;101820.16;7396894;19;20083;-69
2022/07/08 03:58:11;;;;;;;14.95;4.15;;;;;;;14.04;87.26;101820.16;7396365;19;20031;-68
2022/07/08 04:00:40;;;;;;;21.60;4.13;;;;;;;14.04;86.72;101821.91;7395197;19;20081;-69
2022/07/08 04:03:08;;;;;;;17.98;4.00;;;;;;;14.05;86.88;101827.16;7395005;19;20024;-69
2022/07/08 04:05:38;;;;;;;16.85;3.75;;;;;;;14.08;86.74;101826.22;7397564;19;20130;-68
2022/07/08 04:08:09;;;;;;;18.92;4.30;;;;;;;14.06;86.75;101828.88;7396198;19;20037;-68
2022/07/08 04:10:37;;;;;;;19.55;4.07;;;;;;;14.08;86.80;101834.13;7394829;19;20074;-68
2022/07/08 04:13:06;;;;;;;25.60;4.25;;;;;;;14.07;86.60;101835.91;7396324;19;20010;-68
2022/07/08 04:15:34;;;;;;;20.70;3.95;;;;;;;14.11;86.73;101844.66;7394612;19;20018;-68
2022/07/08 04:18:03;;;;;;;22.33;4.03;;;;;;;14.12;86.59;101838.47;7394220;19;20070;-68
2022/07/08 04:20:31;;;;;;;16.80;4.60;;;;;;;14.15;86.28;101844.56;7394743;19;20014;-69
2022/07/08 04:23:00;;;;;;;15.13;4.75;;;;;;;14.18;86.46;101848.91;7396072;19;20010;-68
2022/07/08 04:25:31;;;;;;;18.70;4.85;;;;;;;14.19;86.24;101855.91;7395156;19;20017;-68
2022/07/08 04:27:59;;;;;;;14.73;3.80;;;;;;;14.20;86.15;101849.75;7396095;19;20078;-68
2022/07/08 04:30:28;;;;;;;19.55;4.07;;;;;;;14.22;86.33;101855.00;7394790;19;20031;-68
2022/07/08 04:32:56;;;;;;;11.68;4.03;;;;;;;14.25;86.32;101849.66;7395523;19;20078;-69
2022/07/08 04:35:25;;;;;;;16.17;3.53;;;;;;;14.26;86.01;101872.53;7395437;19;20410;-68
2022/07/08 04:37:53;;;;;;;16.92;3.67;;;;;;;14.26;85.91;101864.59;7395480;19;20019;-68
2022/07/08 04:40:22;;;;;;;17.05;4.35;;;;;;;14.27;85.89;101861.06;7393854;19;20022;-68
2022/07/08 04:42:53;;;;;;;13.82;4.22;;;;;;;14.29;85.55;101867.16;7395413;19;20082;-68
2022/07/08 04:45:23;;;;;;;19.08;4.68;;;;;;;14.31;85.50;101868.03;7394993;19;20419;-69
2022/07/08 04:47:52;;;;;;;18.17;3.55;;;;;;;14.31;85.76;101873.31;7395378;19;20346;-69
2022/07/08 04:50:20;;;;;;;18.65;4.28;;;;;;;14.33;85.30;101868.84;7392990;19;20015;-69
2022/07/08 04:52:50;;;;;;;17.05;4.28;;;;;;;14.34;85.29;101882.03;7394531;19;20552;-68
2022/07/08 04:55:31;;;;;;;17.92;4.82;;;;;;;14.36;85.11;101889.91;7393442;19;20018;-70
2022/07/08 04:58:03;;;;;;;16.85;4.20;;;;;;;14.38;84.86;101885.50;7396175;19;20041;-68
2022/07/08 05:00:33;;;;;;;24.88;4.35;;;;;;;14.39;84.91;101895.13;7392222;19;20022;-68
2022/07/08 05:03:01;;;;;;;18.20;4.75;;;;;;;14.39;84.82;101889.00;7392967;19;20022;-68
2022/07/08 05:05:30;;;;;;;13.80;4.03;;;;;;;14.36;84.66;101889.06;7394636;19;20032;-68
2022/07/08 05:07:59;;;;;;;13.98;4.38;;;;;;;14.33;84.86;101901.41;7394876;19;20014;-68
2022/07/08 05:10:29;;;;;;;16.75;4.40;;;;;;;14.31;84.52;101897.06;7393289;19;20031;-68
2022/07/08 05:12:58;;;;;;;11.10;3.08;;;;;;;14.27;84.17;101911.22;7396325;19;20028;-69
2022/07/08 05:15:29;;;;;;;17.30;4.43;;;;;;;14.24;84.59;101913.91;7394132;19;20078;-68
2022/07/08 05:17:58;;;;;;;17.52;4.90;;;;;;;14.23;84.21;101920.06;7394746;19;20030;-68
2022/07/08 05:20:26;;;;;;;23.35;4.88;;;;;;;14.17;83.86;101911.38;7392502;19;20014;-68
2022/07/08 05:22:55;;;;;;;11.85;3.58;;;;;;;14.17;83.87;101915.78;7394258;19;20402;-69
2022/07/08 05:25:23;;;;;;;11.77;3.78;;;;;;;14.17;84.59;101916.66;7394259;19;20014;-69
2022/07/08 05:27:52;;;;;;;13.48;3.58;;;;;;;14.20;84.51;101922.78;7394477;19;20082;-69
2022/07/08 05:30:21;;;;;;;15.82;3.67;;;;;;;14.21;84.35;101914.84;7392476;19;20088;-69
2022/07/08 05:32:52;;;;;;;18.60;3.78;;;;;;;14.22;84.56;101919.22;7393850;19;20506;-68
2022/07/08 05:35:20;;;;;;;13.93;3.28;;;;;;;14.22;84.17;101923.63;7395453;19;20036;-68
2022/07/08 05:37:49;;;;;;;20.23;4.05;;;;;;;14.18;83.28;101921.03;7394030;19;20015;-67
2022/07/08 05:40:17;;;;;;;13.02;3.25;;;;;;;14.20;84.10;101925.41;7398551;19;20011;-68
2022/07/08 05:42:46;;;;;;;14.10;3.60;;;;;;;14.21;84.13;101925.38;7400892;19;20010;-69
2022/07/08 05:45:14;;;;;;;10.48;2.92;;;;;;;14.22;83.58;101926.28;7401068;19;20027;-68
2022/07/08 05:47:43;;;;;;;15.80;3.20;;;;;;;14.20;83.12;101931.56;7401534;19;20026;-67
2022/07/08 05:50:14;;;;;;;13.07;2.80;;;;;;;14.19;83.35;101927.16;7399546;19;20147;-67
2022/07/08 05:52:43;;;;;;;8.23;3.15;;;;;;;14.18;82.89;101939.50;7397615;19;20027;-68
2022/07/08 05:55:12;;;;;;;14.00;3.45;;;;;;;14.20;82.90;101941.25;7397819;19;20078;-69
2022/07/08 05:57:40;;;;;;;14.48;3.20;;;;;;;14.20;82.77;101943.91;7397645;19;20134;-68
2022/07/08 06:00:10;;;;;;;10.13;2.95;;;;;;;14.20;82.36;101946.53;7399886;19;20155;-67
2022/07/08 06:02:39;;;;;;;19.15;3.95;;;;;;;14.24;82.55;101948.22;7397192;19;20027;-68
2022/07/08 06:05:09;;;;;;;12.85;3.03;;;;;;;14.28;82.76;101939.34;7397226;19;20335;-69
2022/07/08 06:07:41;;;;;;;15.07;3.85;;;;;;;14.35;82.16;101951.53;7399977;19;20031;-68
2022/07/08 06:10:10;;;;;;;11.80;3.08;;;;;;;14.37;81.75;101946.22;7399542;19;20019;-69
2022/07/08 06:12:39;;;;;;;15.13;2.97;;;;;;;14.41;81.33;101951.44;7400395;19;20031;-69
2022/07/08 06:15:13;;;;;;;15.20;2.28;;;;;;;14.43;80.69;101952.28;7399015;19;20028;-69
2022/07/08 06:17:42;;;;;;;11.02;2.35;;;;;;;14.44;80.19;101950.50;7399604;19;20390;-68
2022/07/08 06:20:17;;;;;;;17.05;3.08;;;;;;;14.46;80.03;101959.28;7398266;19;20098;-68
2022/07/08 06:22:50;;;;;;;13.00;3.22;;;;;;;14.48;79.77;101955.69;7399655;19;20021;-68
2022/07/08 06:25:18;;;;;;;7.63;2.45;;;;;;;14.53;80.12;101957.38;7398831;19;20388;-68
2022/07/08 06:27:47;;;;;;;13.57;3.25;;;;;;;14.55;79.79;101959.09;7399522;19;20028;-69
2022/07/08 06:30:16;;;;;;;12.32;2.25;;;;;;;14.57;79.22;101964.34;7396549;19;20039;-68
2022/07/08 06:32:44;;;;;;;11.82;2.85;;;;;;;14.55;77.93;101960.88;7399228;19;20078;-68
2022/07/08 06:35:13;;;;;;;9.77;2.20;;;;;;;14.56;79.39;101968.75;7398817;19;20367;-68
2022/07/08 06:37:42;;;;;;;12.13;2.97;;;;;;;14.61;79.64;101966.91;7398489;19;20485;-68
2022/07/08 06:40:14;;;;;;;16.48;3.28;;;;;;;14.64;78.96;101973.88;7396802;19;20026;-68
2022/07/08 06:42:42;;;;;;;14.45;2.55;;;;;;;14.68;79.04;101980.03;7398539;19;20015;-69
2022/07/08 06:45:12;;;;;;;15.45;3.90;;;;;;;14.67;78.61;101987.06;7398718;19;20549;-68
2022/07/08 06:47:41;;;;;;;18.23;3.40;;;;;;;14.67;78.75;101989.69;7396398;19;20059;-68
2022/07/08 06:50:10;;;;;;;14.77;3.55;;;;;;;14.68;78.78;101991.44;7395777;19;20011;-68
2022/07/08 06:52:39;;;;;;;15.63;3.45;;;;;;;14.66;78.35;101987.97;7397979;19;20028;-67
2022/07/08 06:55:08;;;;;;;10.73;2.90;;;;;;;14.66;78.97;101987.97;7398969;19;20022;-68
2022/07/08 06:57:39;;;;;;;14.10;3.08;;;;;;;14.64;78.68;101995.03;7396430;19;20031;-68
2022/07/08 07:00:09;;;;;;;15.25;3.13;;;;;;;14.64;78.71;102000.31;7397742;19;20078;-69
2022/07/08 07:02:38;;;;;;;10.05;3.40;;;;;;;14.63;78.39;102009.13;7396422;19;20023;-68
2022/07/08 07:05:08;;;;;;;13.15;3.05;;;;;;;14.61;78.87;102006.50;7395925;19;20027;-68
2022/07/08 07:07:37;;;;;;;9.60;2.42;;;;;;;14.60;78.68;102012.69;7398804;19;20018;-67
2022/07/08 07:10:06;;;;;;;12.95;2.78;;;;;;;14.58;78.40;102017.13;7396931;19;20019;-68
2022/07/08 07:12:34;;;;;;;17.40;3.30;;;;;;;14.57;77.21;102014.50;7396115;19;20018;-68
2022/07/08 07:15:06;;;;;;;8.95;2.25;;;;;;;14.56;77.29;102018.03;7397226;19;20015;-68
2022/07/08 07:17:35;;;;;;;14.75;3.05;;;;;;;14.59;77.96;102018.88;7397633;19;20022;-68
2022/07/08 07:20:03;;;;;;;8.70;2.20;;;;;;;14.57;77.60;102022.44;7396473;19;20031;-68
2022/07/08 07:22:32;;;;;;;12.38;3.05;;;;;;;14.62;77.21;102015.28;7397476;19;20022;-68
2022/07/08 07:25:00;;;;;;;13.88;3.33;;;;;;;14.67;76.68;102018.75;7395086;19;20027;-68
2022/07/08 07:27:29;;;;;;;9.90;3.22;;;;;;;14.68;75.88;102023.13;7394786;19;20407;-69
2022/07/08 07:29:57;;;;;;;16.05;2.90;;;;;;;14.73;75.16;102013.34;7395690;19;20015;-68
2022/07/08 07:32:29;;;;;;;12.95;2.17;;;;;;;14.75;74.86;102014.22;7397667;19;20018;-68
2022/07/08 07:34:57;;;;;;;13.43;2.92;;;;;;;14.80;75.04;102011.50;7397740;19;20022;-68
2022/07/08 07:37:25;;;;;;;13.30;2.38;;;;;;;14.83;75.33;102012.28;7396944;19;20544;-68
2022/07/08 07:39:54;;;;;;;8.18;2.22;;;;;;;14.91;74.78;102013.91;7396389;19;20035;-70
2022/07/08 07:42:22;;;;;;;11.10;2.30;;;;;;;14.97;74.48;102024.34;7395933;19;20022;-68
2022/07/08 07:44:51;;;;;;;14.23;3.03;;;;;;;14.98;73.40;102032.25;7396340;19;20091;-68
2022/07/08 07:47:19;;;;;;;10.27;2.58;;;;;;;15.02;74.33;102035.72;7395172;19;20022;-68
2022/07/08 07:49:52;;;;;;;12.15;2.85;;;;;;;15.04;73.33;102033.91;7396132;19;20015;-67
2022/07/08 07:52:21;;;;;;;10.32;2.22;;;;;;;15.13;74.17;102032.88;7396653;19;20014;-67
2022/07/08 07:54:56;;;;;;;10.25;1.75;;;;;;;15.20;73.79;102026.53;7396863;19;20018;-67
2022/07/08 07:57:25;;;;;;;10.82;2.25;;;;;;;15.29;73.99;102042.22;7395707;19;20093;-69
2022/07/08 07:59:53;;;;;;;13.82;2.10;;;;;;;15.31;73.08;102034.25;7395479;19;20481;-68
2022/07/08 08:02:22;;;;;;;10.23;2.03;;;;;;;15.32;72.20;102036.00;7392815;19;20006;-68
2022/07/08 08:04:53;;;;;;;8.02;2.03;;;;;;;15.30;72.42;102040.44;7396167;19;20085;-68
2022/07/08 08:07:21;;;;;;;12.75;2.95;;;;;;;15.31;72.58;102037.75;7395720;19;20028;-67
2022/07/08 08:09:50;;;;;;;11.63;2.33;;;;;;;15.37;71.46;102044.69;7395656;19;20024;-67
2022/07/08 08:12:18;;;;;;;11.73;2.42;;;;;;;15.37;71.71;102035.91;7395132;19;20026;-67
2022/07/08 08:14:47;;;;;;;6.78;2.15;;;;;;;15.36;71.18;102042.94;7394910;19;20018;-67
2022/07/08 08:17:16;;;;;;;12.32;2.67;;;;;;;15.37;72.16;102041.19;7394570;19;20022;-69
2022/07/08 08:19:44;;;;;;;9.10;1.98;;;;;;;15.41;72.22;102048.16;7393814;19;20019;-68
2022/07/08 08:22:15;;;;;;;10.18;2.50;;;;;;;15.40;71.84;102057.84;7394269;19;20082;-67
2022/07/08 08:24:45;;;;;;;16.65;2.45;;;;;;;15.39;72.00;102032.31;7395908;19;20035;-68
2022/07/08 08:27:13;;;;;;;9.05;2.50;;;;;;;15.42;72.49;102049.91;7395554;19;20029;-67
2022/07/08 08:29:42;;;;;;;14.80;2.70;;;;;;;15.48;71.32;102049.78;7393374;19;20019;-67
2022/07/08 08:32:10;;;;;;;14.82;3.10;;;;;;;15.53;71.66;102047.91;7393252;19;20031;-68
2022/07/08 08:34:39;;;;;;;8.45;2.60;;;;;;;15.59;71.44;102045.09;7395030;19;20033;-68
2022/07/08 08:37:07;;;;;;;8.75;2.55;;;;;;;15.68;71.27;102041.38;7393259;19;20356;-68
2022/07/08 08:39:39;;;;;;;9.90;2.40;;;;;;;15.76;70.54;102034.16;7393572;19;20027;-69
2022/07/08 08:42:08;;;;;;;6.93;2.25;;;;;;;15.79;68.76;102041.13;7394231;19;20041;-69
2022/07/08 08:44:37;;;;;;;7.80;2.03;;;;;;;15.81;69.68;102047.28;7393984;19;20018;-68
2022/07/08 08:47:06;;;;;;;7.82;2.40;;;;;;;15.81;69.74;102052.56;7395406;19;20022;-67
2022/07/08 08:49:37;;;;;;;9.55;2.20;;;;;;;15.80;69.35;102056.13;7395395;19;20041;-67
2022/07/08 08:52:07;;;;;;;8.63;2.10;;;;;;;15.77;68.75;102059.69;7395617;19;20078;-67
2022/07/08 08:54:39;;;;;;;11.07;2.28;;;;;;;15.72;67.22;102066.00;7395024;19;20023;-67
2022/07/08 08:57:10;;;;;;;7.13;2.35;;;;;;;15.66;68.09;102055.53;7392978;19;20018;-68
2022/07/08 08:59:39;;;;;;;12.50;2.75;;;;;;;15.62;68.02;102054.75;7394673;19;20372;-68
2022/07/08 09:02:11;;;;;;;10.10;2.20;;;;;;;15.59;68.73;102057.47;7393466;19;20032;-67
2022/07/08 09:04:41;;;;;;;12.10;2.70;;;;;;;15.59;68.99;102054.81;7395080;19;20043;-69
2022/07/08 09:07:09;;;;;;;7.95;2.45;;;;;;;15.60;68.66;102061.84;7394587;19;20423;-68
2022/07/08 09:09:40;;;;;;;7.50;2.60;;;;;;;15.58;68.59;102055.72;7392749;19;20099;-68
2022/07/08 09:12:29;;;;;;;10.20;2.28;;;;;;;15.57;66.91;102080.41;7393894;19;20070;-67
2022/07/08 09:15:00;;;;;;;14.88;2.90;;;;;;;15.59;67.19;102055.66;7400759;19;20010;-67
2022/07/08 09:17:29;;;;;;;12.30;2.45;;;;;;;15.63;68.05;102075.88;7403221;19;20367;-69
2022/07/08 09:19:57;;;;;;;10.88;2.58;;;;;;;15.64;67.84;102066.16;7400333;19;20035;-68
2022/07/08 09:22:26;;;;;;;9.65;2.00;;;;;;;15.68;67.66;102073.13;7398571;19;20521;-67
2022/07/08 09:24:58;;;;;;;6.68;2.20;;;;;;;15.72;67.06;102076.56;7401682;19;20035;-68
2022/07/08 09:27:27;;;;;;;6.13;2.30;;;;;;;15.75;66.90;102082.66;7401383;19;20027;-67
2022/07/08 09:30:00;;;;;;;12.15;2.17;;;;;;;15.77;66.27;102090.56;7399985;19;20154;-67
2022/07/08 09:32:28;;;;;;;11.55;2.42;;;;;;;15.80;66.75;102088.72;7397954;19;20035;-67
2022/07/08 09:34:57;;;;;;;7.88;1.60;;;;;;;15.88;66.95;102077.16;7400835;19;20466;-68
2022/07/08 09:37:26;;;;;;;8.57;2.20;;;;;;;15.93;65.00;102086.69;7401437;19;20038;-68
2022/07/08 09:39:57;;;;;;;8.68;1.80;;;;;;;15.96;64.65;102083.13;7397231;19;20021;-68
2022/07/08 09:42:25;;;;;;;10.48;1.85;;;;;;;15.99;65.54;102084.84;7398056;19;20489;-68
2022/07/08 09:44:55;;;;;;;10.18;2.15;;;;;;;16.04;65.11;102082.97;7400564;19;20078;-68
2022/07/08 09:47:23;;;;;;;9.93;1.77;;;;;;;16.10;64.68;102091.63;7401131;19;20065;-68
2022/07/08 09:49:52;;;;;;;10.07;2.35;;;;;;;16.17;64.52;102102.06;7398152;19;20019;-68
2022/07/08 09:52:25;;;;;;;9.35;1.90;;;;;;;16.21;63.11;102096.66;7400668;19;20018;-68
2022/07/08 09:55:06;;;;;;;5.70;1.75;;;;;;;16.25;61.47;102102.75;7400878;19;20094;-68
2022/07/08 09:57:35;;;;;;;9.68;2.05;;;;;;;16.29;61.73;102092.06;7400900;19;20018;-68
2022/07/08 10:00:04;;;;;;;8.45;1.67;;;;;;;16.36;63.41;102091.91;7399030;19;20035;-68
2022/07/08 10:02:33;;;;;;;9.32;1.65;;;;;;;16.40;62.53;102088.25;7397341;19;20502;-68
2022/07/08 10:05:03;;;;;;;6.00;1.98;;;;;;;16.50;62.45;102096.84;7398136;19;20027;-67
2022/07/08 10:07:32;;;;;;;8.82;1.73;;;;;;;16.55;60.90;102095.81;7397659;19;20021;-68
2022/07/08 10:10:00;;;;;;;7.20;1.80;;;;;;;16.58;61.01;102086.91;7397636;19;20022;-67
2022/07/08 10:12:35;;;;;;;9.25;1.70;;;;;;;16.60;60.92;102078.06;7399826;19;20027;-67
2022/07/08 10:15:05;;;;;;;7.65;1.77;;;;;;;16.62;60.90;102083.31;7396975;19;20087;-66
2022/07/08 10:17:42;;;;;;;5.00;1.52;;;;;;;16.65;59.97;102085.88;7397032;19;20022;-67
2022/07/08 10:20:12;;;;;;;7.57;1.85;;;;;;;16.73;61.82;102078.59;7398573;19;20022;-68
2022/07/08 10:22:42;;;;;;;10.38;1.80;;;;;;;16.84;61.53;102075.66;7397576;19;20032;-67
2022/07/08 10:25:11;;;;;;;5.00;1.80;;;;;;;17.00;61.26;102084.09;7395839;19;20108;-67
2022/07/08 10:27:43;;;;;;;9.32;1.63;;;;;;;17.12;60.46;102074.06;7399316;19;20070;-69
2022/07/08 10:30:18;;;;;;;10.20;1.67;;;;;;;17.17;59.79;102067.69;7397848;19;20035;-67
2022/07/08 10:32:48;;;;;;;11.68;1.73;;;;;;;17.26;60.02;102061.25;7396415;19;20020;-68
2022/07/08 10:35:21;;;;;;;6.03;2.03;;;;;;;17.39;60.12;102072.41;7396572;19;20018;-67
2022/07/08 10:37:51;;;;;;;9.68;2.20;;;;;;;17.52;59.92;102068.47;7399368;19;20039;-67
2022/07/08 10:40:51;;;;;;;9.32;2.17;;;;;;;17.63;56.93;102064.63;7397064;19;20493;-68
2022/07/08 10:43:29;;;;;;;6.97;2.08;;;;;;;17.73;56.43;102082.88;7396068;19;20019;-67
2022/07/08 10:46:02;;;;;;;7.45;1.80;;;;;;;17.80;55.84;102077.38;7396461;19;20025;-67
2022/07/08 10:48:31;;;;;;;8.18;2.85;;;;;;;17.85;57.18;102067.50;7396227;19;20022;-68
2022/07/08 10:51:00;;;;;;;12.82;3.60;;;;;;;17.90;57.60;102073.53;7396740;19;20446;-67
2022/07/08 10:53:48;;;;;;;12.35;2.72;;;;;;;17.93;54.27;102092.00;7396667;19;20019;-67
2022/07/08 10:56:49;;;;;;;11.43;2.88;;;;;;;18.00;55.33;102084.75;7396206;19;20019;-68
2022/07/08 10:59:21;;;;;;;9.30;2.20;;;;;;;18.04;55.48;102073.97;7398221;19;20022;-68
2022/07/08 11:01:53;;;;;;;9.38;2.08;;;;;;;18.11;54.60;102071.13;7396372;19;20015;-68
2022/07/08 11:04:23;;;;;;;5.93;1.55;;;;;;;18.18;55.03;102078.84;7398491;19;20021;-68
2022/07/08 11:06:52;;;;;;;6.97;1.80;;;;;;;18.25;53.56;102058.28;7395843;19;20011;-69
2022/07/08 11:09:22;;;;;;;8.02;1.52;;;;;;;18.40;54.52;102049.78;7396421;19;20031;-67
2022/07/08 11:11:52;;;;;;;7.97;1.75;;;;;;;18.60;54.47;102065.97;7397771;19;20019;-68
2022/07/08 11:14:23;;;;;;;12.82;2.50;;;;;;;18.68;53.12;102059.47;7397722;19;20028;-67
2022/07/08 11:16:51;;;;;;;7.70;1.52;;;;;;;18.81;54.27;102045.75;7395063;19;20010;-67
2022/07/08 11:19:20;;;;;;;8.40;1.65;;;;;;;18.87;53.53;102066.78;7396551;19;20028;-67
2022/07/08 11:21:48;;;;;;;4.18;1.40;;;;;;;18.91;53.84;102046.31;7396247;19;20014;-67
2022/07/08 11:24:17;;;;;;;9.52;1.77;;;;;;;18.96;53.27;102063.84;7396678;19;20505;-68
2022/07/08 11:26:46;;;;;;;6.28;1.73;;;;;;;19.00;52.43;102043.31;7394577;19;20033;-67
2022/07/08 11:29:20;;;;;;;5.65;1.40;;;;;;;19.01;51.92;102053.88;7394074;19;20098;-68
2022/07/08 11:31:57;;;;;;;;;;;;;;;19.08;49.94;102043.88;7397190;19;20457;-67
2022/07/08 11:34:26;;;;;;;5.43;1.48;;;;;;;19.18;51.52;102042.66;7397560;19;19939;-67
2022/07/08 11:36:58;;;;;;;8.68;2.13;;;;;;;19.32;48.78;102036.81;7394720;19;20015;-67